Time;durP1;ratioP1;P1;durP2;ratioP2;P2;SDS_P1;SDS_P2;PMS_P1;PMS_P2;Temp;Humidity;BMP_temperature;BMP_pressure;BME280_temperature;BME280_humidity;BME280_pressure;Samples;Min_cycle;Max_cycle;Signal;HPM_P1;HPM_P2
2022/06/20 00:02:22;;;;;;;11.88;4.07;;;26.70;99.90;;;;;;5094529;28;20052;-79
2022/06/20 00:04:51;;;;;;;8.88;3.72;;;26.70;99.90;;;;;;5093554;28;20157;-79
2022/06/20 00:07:18;;;;;;;18.85;4.90;;;26.60;99.90;;;;;;5097546;28;20048;-79
2022/06/20 00:09:46;;;;;;;7.85;4.10;;;26.60;99.90;;;;;;5089398;28;20083;-80
2022/06/20 00:12:18;;;;;;;7.80;3.80;;;26.60;99.90;;;;;;5095026;28;20052;-79
2022/06/20 00:14:47;;;;;;;9.20;5.18;;;26.70;99.90;;;;;;5094838;28;20079;-80
2022/06/20 00:17:14;;;;;;;10.35;4.60;;;26.80;99.90;;;;;;5094746;28;20478;-79
2022/06/20 00:19:42;;;;;;;15.07;3.92;;;26.80;99.90;;;;;;5095510;28;20051;-79
2022/06/20 00:22:10;;;;;;;11.52;4.22;;;26.80;99.90;;;;;;5093617;28;20106;-80
2022/06/20 00:24:38;;;;;;;12.35;4.82;;;26.80;99.90;;;;;;5089518;28;20063;-79
2022/06/20 00:27:08;;;;;;;13.07;3.88;;;26.80;99.90;;;;;;5096621;28;20075;-79
2022/06/20 00:29:40;;;;;;;13.75;4.22;;;26.80;99.90;;;;;;5093737;28;20059;-79
2022/06/20 00:32:08;;;;;;;8.95;4.30;;;26.90;99.90;;;;;;5094098;28;20055;-79
2022/06/20 00:34:35;;;;;;;10.70;4.15;;;26.90;99.90;;;;;;5095146;28;20104;-78
2022/06/20 00:37:04;;;;;;;13.23;4.60;;;26.90;99.90;;;;;;5094493;28;20049;-79
2022/06/20 00:39:31;;;;;;;8.85;3.72;;;26.90;99.90;;;;;;5090737;28;20104;-79
2022/06/20 00:42:00;;;;;;;12.55;4.05;;;26.90;99.90;;;;;;5099673;28;20060;-79
2022/06/20 00:44:34;;;;;;;12.63;4.68;;;27.00;99.90;;;;;;5098421;28;20055;-79
2022/06/20 00:47:06;;;;;;;12.02;3.92;;;27.00;99.90;;;;;;5097128;28;20055;-79
2022/06/20 00:49:45;;;;;;;10.40;4.13;;;26.90;99.90;;;;;;5099756;28;20044;-79
2022/06/20 00:52:27;;;;;;;11.48;4.20;;;26.90;99.90;;;;;;5095969;28;20040;-79
2022/06/20 00:55:02;;;;;;;7.10;3.55;;;27.00;99.90;;;;;;5092845;28;20045;-78
2022/06/20 00:57:31;;;;;;;11.05;4.10;;;27.00;99.90;;;;;;5098788;28;20050;-79
2022/06/20 01:00:07;;;;;;;8.57;3.47;;;27.00;99.90;;;;;;5098172;28;20045;-78
2022/06/20 01:02:50;;;;;;;9.52;3.83;;;26.90;99.90;;;;;;5092241;28;20131;-79
2022/06/20 01:05:34;;;;;;;9.38;3.95;;;27.00;99.90;;;;;;5096546;28;20048;-79
2022/06/20 01:08:15;;;;;;;9.43;4.70;;;27.00;99.90;;;;;;5094412;28;20044;-78
2022/06/20 01:10:51;;;;;;;12.02;3.60;;;27.10;99.90;;;;;;5095614;28;20049;-79
2022/06/20 01:13:20;;;;;;;11.50;3.95;;;27.00;99.90;;;;;;5095004;28;20071;-79
2022/06/20 01:15:51;;;;;;;8.18;4.00;;;27.10;99.90;;;;;;5095724;28;20501;-79
2022/06/20 01:18:31;;;;;;;7.10;3.75;;;27.10;99.90;;;;;;5098279;28;20075;-78
2022/06/20 01:21:00;;;;;;;7.55;3.83;;;27.10;99.90;;;;;;5075567;28;20079;-78
2022/06/20 01:23:35;;;;;;;8.27;3.50;;;27.10;99.90;;;;;;5096864;28;20108;-79
2022/06/20 01:26:12;;;;;;;10.10;3.97;;;27.10;99.90;;;;;;5095827;28;20068;-78
2022/06/20 01:28:41;;;;;;;8.93;3.90;;;27.10;99.90;;;;;;5091973;28;20053;-80
2022/06/20 01:31:09;;;;;;;6.20;3.42;;;27.00;99.90;;;;;;5097378;28;20441;-78
2022/06/20 01:33:37;;;;;;;9.30;4.28;;;27.00;99.90;;;;;;5097341;28;20044;-78
2022/06/20 01:38:50;;;;;;;8.40;3.95;;;27.10;99.90;;;;;;5094385;28;20127;-78
2022/06/20 01:44:05;;;;;;;7.35;3.47;;;27.10;99.90;;;;;;5093942;28;20124;-79
2022/06/20 01:46:34;;;;;;;8.73;3.65;;;27.00;99.90;;;;;;5096310;28;20048;-79
2022/06/20 01:49:10;;;;;;;10.10;3.72;;;27.00;99.90;;;;;;5097499;28;20051;-78
2022/06/20 01:51:46;;;;;;;8.48;3.47;;;27.10;99.90;;;;;;5090655;28;20055;-79
2022/06/20 01:54:15;;;;;;;9.27;3.50;;;27.10;99.90;;;;;;5096924;28;20051;-78
2022/06/20 01:56:44;;;;;;;11.10;3.70;;;27.20;99.90;;;;;;5097183;28;20472;-79
2022/06/20 01:59:18;;;;;;;8.20;3.70;;;27.10;99.90;;;;;;5094302;28;20045;-78
2022/06/20 02:01:46;;;;;;;10.80;3.83;;;27.10;99.90;;;;;;5091950;28;20053;-78
2022/06/20 02:04:18;;;;;;;7.18;3.42;;;27.20;99.90;;;;;;5096930;28;20044;-79
2022/06/20 02:06:47;;;;;;;7.13;3.40;;;27.20;99.90;;;;;;5096517;28;20052;-79
2022/06/20 02:09:15;;;;;;;9.18;3.67;;;27.20;99.90;;;;;;5094998;28;20052;-79
2022/06/20 02:11:45;;;;;;;6.65;3.90;;;27.20;99.90;;;;;;5097528;28;20044;-78
2022/06/20 02:14:35;;;;;;;8.63;3.60;;;27.20;99.90;;;;;;5091435;28;20072;-78
2022/06/20 02:17:10;;;;;;;8.13;3.40;;;27.20;99.90;;;;;;5089369;28;20040;-78
2022/06/20 02:19:45;;;;;;;8.07;3.05;;;27.20;99.90;;;;;;5096547;28;20122;-78
2022/06/20 02:22:13;;;;;;;10.40;3.90;;;27.20;99.90;;;;;;5097618;28;20058;-79
2022/06/20 02:24:44;;;;;;;7.68;3.50;;;27.20;99.90;;;;;;5094095;28;20049;-79
2022/06/20 02:27:17;;;;;;;9.68;3.30;;;27.20;99.90;;;;;;5091557;28;20044;-78
2022/06/20 02:29:45;;;;;;;9.35;3.95;;;27.10;99.90;;;;;;5095821;28;20047;-78
2022/06/20 02:32:19;;;;;;;13.10;5.32;;;27.10;99.90;;;;;;5096316;28;20049;-78
2022/06/20 02:34:47;;;;;;;9.60;3.60;;;27.10;99.90;;;;;;5094741;28;20494;-78
2022/06/20 02:37:20;;;;;;;8.43;2.90;;;27.00;99.90;;;;;;5090319;28;20048;-77
2022/06/20 02:39:53;;;;;;;9.68;3.10;;;26.90;99.90;;;;;;5094797;28;20448;-79
2022/06/20 02:42:41;;;;;;;10.15;3.45;;;26.90;99.90;;;;;;5096226;28;20051;-79
2022/06/20 02:45:11;;;;;;;7.53;3.55;;;26.90;99.90;;;;;;5075191;28;20112;-79
2022/06/20 02:47:45;;;;;;;12.40;3.10;;;26.90;99.90;;;;;;5096475;28;20112;-79
2022/06/20 02:50:16;;;;;;;11.07;3.15;;;26.80;99.90;;;;;;5089774;28;20313;-78
2022/06/20 02:52:55;;;;;;;11.60;3.00;;;26.80;99.90;;;;;;5095869;28;20055;-79
2022/06/20 02:55:23;;;;;;;6.55;2.70;;;26.80;99.90;;;;;;5094761;28;20048;-79
2022/06/20 02:57:57;;;;;;;12.90;2.78;;;26.80;99.90;;;;;;5093086;28;20109;-79
2022/06/20 03:00:37;;;;;;;10.02;3.08;;;26.90;99.90;;;;;;5091225;28;20044;-78
2022/06/20 03:03:09;;;;;;;6.65;3.00;;;26.90;99.90;;;;;;5096219;28;20103;-79
2022/06/20 03:05:38;;;;;;;11.60;3.65;;;26.90;99.90;;;;;;5090420;28;20051;-79
2022/06/20 03:08:04;;;;;;;6.57;2.55;;;26.90;99.90;;;;;;5096053;28;20059;-79
2022/06/20 03:10:52;;;;;;;5.82;2.72;;;26.80;99.90;;;;;;5093825;28;20119;-79
2022/06/20 03:13:20;;;;;;;11.52;3.47;;;26.90;99.90;;;;;;5091247;28;20044;-79
2022/06/20 03:15:49;;;;;;;24.45;3.47;;;26.90;99.90;;;;;;5095689;28;20444;-80
2022/06/20 03:18:19;;;;;;;7.30;2.63;;;26.90;99.90;;;;;;5094284;28;20108;-78
2022/06/20 03:20:46;;;;;;;7.80;3.10;;;26.90;99.90;;;;;;5092738;28;20048;-78
2022/06/20 03:23:29;;;;;;;7.43;3.45;;;26.90;99.90;;;;;;5095237;28;20454;-79
2022/06/20 03:25:58;;;;;;;8.30;3.10;;;26.90;99.90;;;;;;5092544;28;20049;-80
2022/06/20 03:28:28;;;;;;;7.32;3.03;;;26.90;99.90;;;;;;5093459;28;20111;-79
2022/06/20 03:31:05;;;;;;;8.93;2.80;;;26.90;99.90;;;;;;5088152;28;20048;-80
2022/06/20 03:33:32;;;;;;;6.65;2.67;;;26.80;99.90;;;;;;5095674;28;20090;-79
2022/06/20 03:36:10;;;;;;;8.00;3.72;;;26.80;99.90;;;;;;5093933;28;20124;-78
2022/06/20 03:38:40;;;;;;;6.75;2.30;;;26.80;99.90;;;;;;5093580;28;20433;-81
2022/06/20 03:41:10;;;;;;;11.60;3.13;;;26.80;99.90;;;;;;5088213;28;20111;-78
2022/06/20 03:43:39;;;;;;;9.65;3.70;;;26.80;99.90;;;;;;5093533;28;20091;-79
2022/06/20 03:46:15;;;;;;;9.83;3.23;;;26.70;99.90;;;;;;5093292;28;20056;-79
2022/06/20 03:48:57;;;;;;;6.47;3.13;;;26.70;99.90;;;;;;5091949;28;20286;-80
2022/06/20 03:51:28;;;;;;;7.05;2.78;;;26.70;99.90;;;;;;5092418;28;20048;-80
2022/06/20 03:54:04;;;;;;;9.27;2.88;;;26.50;99.90;;;;;;5092109;28;20049;-80
2022/06/20 03:56:35;;;;;;;12.50;2.92;;;26.50;99.90;;;;;;5088219;28;20488;-80
2022/06/20 03:59:12;;;;;;;8.85;3.08;;;26.50;99.90;;;;;;5094168;28;20044;-79
2022/06/20 04:02:03;;;;;;;9.52;3.97;;;26.40;99.90;;;;;;5104130;28;20468;-79
2022/06/20 04:04:56;;;;;;;11.98;3.35;;;26.30;99.90;;;;;;5095005;28;20474;-79
2022/06/20 04:07:30;;;;;;;6.93;3.00;;;26.30;99.90;;;;;;5094940;28;20058;-80
2022/06/20 04:13:28;;;;;;;8.63;3.42;;;26.20;99.90;;;;;;5092804;28;20131;-79
2022/06/20 04:16:16;;;;;;;5.82;3.00;;;26.00;99.90;;;;;;5092847;28;20052;-80
2022/06/20 04:19:14;;;;;;;8.05;2.90;;;26.00;99.90;;;;;;5091228;28;20040;-81
2022/06/20 04:21:56;;;;;;;12.60;3.25;;;26.00;99.90;;;;;;5089537;28;20573;-78
2022/06/20 04:24:35;;;;;;;13.00;3.58;;;26.00;99.90;;;;;;5087612;28;20049;-78
2022/06/20 04:27:07;;;;;;;10.13;3.35;;;26.10;99.90;;;;;;5092352;28;20643;-78
2022/06/20 04:29:49;;;;;;;9.05;2.92;;;26.00;99.90;;;;;;5090725;28;20112;-79
2022/06/20 04:32:29;;;;;;;5.10;2.65;;;26.00;99.90;;;;;;5091699;28;20048;-79
2022/06/20 04:35:13;;;;;;;10.73;3.45;;;26.00;99.90;;;;;;5087129;28;20055;-78
2022/06/20 04:37:58;;;;;;;13.98;3.60;;;26.00;99.90;;;;;;5093380;28;20558;-79
2022/06/20 04:40:31;;;;;;;6.90;3.25;;;26.00;99.90;;;;;;5091223;28;20044;-79
2022/06/20 04:43:22;;;;;;;7.63;3.17;;;26.00;99.90;;;;;;5093014;28;20045;-80
2022/06/20 04:46:14;;;;;;;3.85;2.63;;;26.00;99.90;;;;;;5094005;28;20054;-80
2022/06/20 04:48:46;;;;;;;9.48;3.10;;;25.90;99.90;;;;;;5093630;28;20052;-80
2022/06/20 04:51:17;;;;;;;8.25;2.65;;;26.00;99.90;;;;;;5092747;28;20510;-81
2022/06/20 04:53:46;;;;;;;11.80;3.10;;;26.00;99.90;;;;;;5093630;28;20048;-80
2022/06/20 04:56:15;;;;;;;10.57;3.10;;;26.10;99.90;;;;;;5093959;28;20059;-81
2022/06/20 04:58:50;;;;;;;12.13;3.80;;;26.10;99.90;;;;;;5093973;28;20112;-78
2022/06/20 05:01:18;;;;;;;6.65;3.03;;;26.20;99.90;;;;;;5095512;28;20048;-80
2022/06/20 05:03:57;;;;;;;8.00;2.88;;;26.10;99.90;;;;;;5088191;28;20045;-78
2022/06/20 05:06:27;;;;;;;5.47;2.80;;;26.10;99.90;;;;;;5092266;28;20048;-79
2022/06/20 05:09:07;;;;;;;7.93;3.10;;;26.10;99.90;;;;;;5092733;28;20045;-78
2022/06/20 05:11:44;;;;;;;11.32;2.63;;;26.20;99.90;;;;;;5089365;28;20040;-80
2022/06/20 05:14:28;;;;;;;5.97;2.70;;;26.30;99.90;;;;;;5091209;28;20044;-80
2022/06/20 05:16:59;;;;;;;4.85;2.20;;;26.40;99.90;;;;;;5088936;28;20060;-78
2022/06/20 05:19:35;;;;;;;10.65;2.33;;;26.40;99.90;;;;;;5087335;28;20072;-78
2022/06/20 05:22:11;;;;;;;12.20;2.58;;;26.50;99.90;;;;;;5084620;28;20112;-80
2022/06/20 05:24:39;;;;;;;6.05;2.40;;;26.60;99.90;;;;;;5088807;28;20048;-79
2022/06/20 05:27:13;;;;;;;6.18;2.28;;;26.70;99.90;;;;;;5094185;28;20067;-79
2022/06/20 05:29:43;;;;;;;4.20;2.33;;;26.80;99.90;;;;;;5086912;28;20052;-79
2022/06/20 05:32:15;;;;;;;4.60;2.58;;;26.90;99.90;;;;;;5095719;28;20044;-80
2022/06/20 05:34:52;;;;;;;7.85;2.20;;;26.80;99.90;;;;;;5095497;28;20060;-82
2022/06/20 05:37:48;;;;;;;7.13;2.50;;;26.70;99.90;;;;;;5093339;28;20104;-80
2022/06/20 05:40:26;;;;;;;7.55;1.90;;;26.80;99.90;;;;;;5087896;28;20271;-80
2022/06/20 05:42:53;;;;;;;6.53;2.67;;;26.90;99.90;;;;;;5093056;28;20068;-78
2022/06/20 05:45:22;;;;;;;5.10;2.20;;;27.00;99.90;;;;;;5095604;28;20048;-79
2022/06/20 05:47:51;;;;;;;8.07;2.90;;;27.00;99.90;;;;;;5092005;28;20044;-80
2022/06/20 05:50:44;;;;;;;6.35;2.92;;;27.00;99.90;;;;;;5094360;28;20143;-80
2022/06/20 05:53:25;;;;;;;5.47;2.28;;;27.00;99.90;;;;;;5087015;28;20119;-78
2022/06/20 05:55:55;;;;;;;5.10;2.50;;;27.00;99.90;;;;;;5092161;28;20093;-79
2022/06/20 05:58:28;;;;;;;;;;;27.00;99.90;;;;;;5092994;28;20044;-79
2022/06/20 06:00:58;;;;;;;5.07;2.28;;;27.10;99.90;;;;;;5087822;28;20445;-79
2022/06/20 06:03:28;;;;;;;;;;;27.10;99.90;;;;;;5095705;28;20055;-79
2022/06/20 06:06:20;;;;;;;8.00;2.33;;;27.10;99.90;;;;;;5093480;28;19920;-80
2022/06/20 06:08:52;;;;;;;4.85;2.60;;;27.10;99.90;;;;;;5090445;28;20067;-78
2022/06/20 06:11:30;;;;;;;4.35;2.60;;;27.10;99.90;;;;;;5092261;28;20131;-78
2022/06/20 06:14:00;;;;;;;5.38;2.45;;;27.20;99.90;;;;;;5088873;28;20139;-78
2022/06/20 06:16:47;;;;;;;8.95;2.72;;;27.20;99.90;;;;;;5093027;28;20051;-79
2022/06/20 06:19:25;;;;;;;6.43;2.40;;;27.20;99.90;;;;;;5088446;28;20066;-78
2022/06/20 06:21:54;;;;;;;7.95;2.30;;;27.10;99.90;;;;;;5091787;28;20506;-79
2022/06/20 06:24:24;;;;;;;10.80;2.60;;;27.20;99.90;;;;;;5096045;28;20074;-80
2022/06/20 06:26:56;;;;;;;12.02;2.60;;;27.20;99.90;;;;;;5090756;28;20044;-80
2022/06/20 06:29:45;;;;;;;7.30;2.70;;;27.30;99.90;;;;;;5096621;28;20420;-81
2022/06/20 06:32:21;;;;;;;4.55;2.58;;;27.40;99.90;;;;;;5071396;28;20049;-78
2022/06/20 06:35:04;;;;;;;8.75;2.85;;;27.40;99.90;;;;;;5092967;28;20048;-81
2022/06/20 06:37:45;;;;;;;12.05;3.15;;;27.30;99.90;;;;;;5090296;28;20045;-78
2022/06/20 06:40:52;;;;;;;5.35;2.78;;;27.30;99.90;;;;;;5091604;28;20040;-79
2022/06/20 06:43:38;;;;;;;8.65;2.80;;;27.20;99.90;;;;;;5091969;28;20045;-77
2022/06/20 06:46:15;;;;;;;9.63;2.63;;;27.20;99.90;;;;;;5089448;28;20054;-78
2022/06/20 06:48:43;;;;;;;8.07;3.15;;;27.20;99.90;;;;;;5092413;28;20054;-77
2022/06/20 06:51:19;;;;;;;7.75;2.67;;;27.20;99.90;;;;;;5089695;28;20115;-78
2022/06/20 06:54:07;;;;;;;9.82;3.05;;;27.20;99.90;;;;;;5087754;28;20057;-79
2022/06/20 06:56:40;;;;;;;10.77;2.95;;;27.10;99.90;;;;;;5095858;28;20058;-79
2022/06/20 06:59:21;;;;;;;7.55;2.78;;;27.00;99.90;;;;;;5090574;28;20525;-79
2022/06/20 07:01:51;;;;;;;7.05;2.72;;;27.00;99.90;;;;;;5093227;28;20055;-79
2022/06/20 07:04:18;;;;;;;10.10;3.35;;;27.00;99.90;;;;;;5087313;28;20049;-81
2022/06/20 07:06:54;;;;;;;8.23;2.83;;;26.90;99.90;;;;;;5094974;28;20052;-79
2022/06/20 07:09:44;;;;;;;5.93;2.78;;;26.90;99.90;;;;;;5093967;28;20413;-81
2022/06/20 07:12:26;;;;;;;;;;;26.90;99.90;;;;;;5091758;28;20044;-79
2022/06/20 07:15:15;;;;;;;7.40;3.47;;;26.80;99.90;;;;;;5088142;28;19920;-79
2022/06/20 07:18:02;;;;;;;4.93;2.40;;;26.80;99.90;;;;;;5094313;28;20044;-79
2022/06/20 07:20:34;;;;;;;8.70;3.05;;;26.80;99.90;;;;;;5094828;28;20044;-80
2022/06/20 07:23:05;;;;;;;6.55;3.20;;;26.80;99.90;;;;;;5093128;28;20111;-79
2022/06/20 07:25:36;;;;;;;8.50;3.10;;;26.80;99.90;;;;;;5096965;28;20058;-79
2022/06/20 07:28:27;;;;;;;6.40;2.92;;;26.80;99.90;;;;;;5094728;28;20438;-79
2022/06/20 07:31:05;;;;;;;12.30;2.92;;;26.90;99.90;;;;;;5089805;28;20058;-79
2022/06/20 07:33:42;;;;;;;5.15;2.90;;;26.90;99.90;;;;;;5093065;28;20064;-81
2022/06/20 07:36:12;;;;;;;6.88;2.55;;;26.90;99.90;;;;;;5091234;28;20423;-79
2022/06/20 07:38:56;;;;;;;7.05;3.00;;;27.00;99.90;;;;;;5094944;28;20040;-81
2022/06/20 07:41:29;;;;;;;6.60;3.10;;;27.00;99.90;;;;;;5090873;28;20410;-79
2022/06/20 07:44:06;;;;;;;5.75;3.17;;;26.90;99.90;;;;;;5094517;28;20085;-79
2022/06/20 07:46:49;;;;;;;6.68;2.60;;;26.90;99.90;;;;;;5090324;28;20409;-79
2022/06/20 07:49:19;;;;;;;9.98;3.33;;;26.90;99.90;;;;;;5092565;28;20048;-79
2022/06/20 07:51:50;;;;;;;6.95;2.67;;;27.00;99.90;;;;;;5095855;28;20044;-79
2022/06/20 07:54:26;;;;;;;12.85;4.38;;;27.10;99.90;;;;;;5089164;28;20107;-80
2022/06/20 07:57:15;;;;;;;9.55;3.10;;;27.10;99.90;;;;;;5094846;28;20104;-79
2022/06/20 08:00:04;;;;;;;7.85;3.10;;;27.20;99.90;;;;;;5087880;28;20123;-79
2022/06/20 08:03:02;;;;;;;13.80;3.30;;;27.20;99.90;;;;;;5090541;28;20171;-79
2022/06/20 08:05:50;;;;;;;6.35;2.53;;;27.20;99.90;;;;;;5091397;28;20136;-80
2022/06/20 08:08:29;;;;;;;5.97;2.58;;;27.20;99.90;;;;;;5090330;28;20529;-79
2022/06/20 08:10:59;;;;;;;7.45;3.55;;;27.30;99.90;;;;;;5093562;28;20108;-80
2022/06/20 08:13:40;;;;;;;8.75;3.03;;;27.20;99.90;;;;;;5093455;28;20071;-80
2022/06/20 08:16:17;;;;;;;10.63;3.30;;;27.20;99.90;;;;;;5092594;28;20058;-79
2022/06/20 08:18:44;;;;;;;7.68;2.97;;;27.30;99.90;;;;;;5092409;28;20517;-80
2022/06/20 08:21:19;;;;;;;5.80;2.58;;;27.30;99.90;;;;;;5095662;28;20036;-79
2022/06/20 08:23:52;;;;;;;8.23;3.15;;;27.30;99.90;;;;;;5094018;28;20052;-80
2022/06/20 08:26:28;;;;;;;9.25;3.00;;;27.30;99.90;;;;;;5093407;28;20051;-79
2022/06/20 08:28:58;;;;;;;6.47;2.90;;;27.40;99.90;;;;;;5089297;28;20048;-81
2022/06/20 08:31:30;;;;;;;8.55;3.35;;;27.40;99.90;;;;;;5096401;28;20048;-80
2022/06/20 08:34:15;;;;;;;8.65;3.53;;;27.50;99.90;;;;;;5093712;28;20112;-80
2022/06/20 08:37:11;;;;;;;8.73;3.08;;;27.70;99.90;;;;;;5090484;28;20041;-80
2022/06/20 08:40:06;;;;;;;7.28;2.67;;;27.80;99.90;;;;;;5072181;28;20044;-80
2022/06/20 08:42:54;;;;;;;8.52;2.75;;;27.80;99.90;;;;;;5092884;28;20116;-80
2022/06/20 08:46:14;;;;;;;5.47;2.65;;;27.80;99.90;;;;;;5089277;28;20056;-80
2022/06/20 08:48:44;;;;;;;;;;;27.90;99.90;;;;;;5091401;28;20056;-80
2022/06/20 08:51:40;;;;;;;7.33;2.80;;;27.90;99.90;;;;;;5094061;28;19934;-79
2022/06/20 08:54:36;;;;;;;9.18;3.92;;;28.00;99.90;;;;;;5090653;28;20301;-78
2022/06/20 08:57:31;;;;;;;4.68;2.78;;;27.90;99.90;;;;;;5085091;28;20127;-79
2022/06/20 09:00:56;;;;;;;5.63;2.97;;;28.00;99.90;;;;;;5094156;28;20059;-79
2022/06/20 09:03:34;;;;;;;12.85;3.03;;;28.00;99.90;;;;;;5097393;28;20107;-79
2022/06/20 09:06:34;;;;;;;5.60;3.00;;;28.00;99.90;;;;;;5092781;28;20056;-79
2022/06/20 09:09:15;;;;;;;8.75;3.22;;;28.00;99.90;;;;;;5094666;28;20067;-79
2022/06/20 09:11:53;;;;;;;8.95;2.95;;;28.10;99.90;;;;;;5091959;28;20080;-79
2022/06/20 09:14:37;;;;;;;6.93;2.90;;;28.10;99.90;;;;;;5094753;28;20048;-79
2022/06/20 09:17:17;;;;;;;4.97;2.90;;;28.20;99.90;;;;;;5092919;28;20128;-78
2022/06/20 09:20:03;;;;;;;6.95;2.58;;;28.20;99.90;;;;;;5093761;28;20123;-78
2022/06/20 09:22:53;;;;;;;7.82;2.90;;;28.30;99.90;;;;;;5095413;28;20087;-78
2022/06/20 09:25:22;;;;;;;5.55;2.35;;;28.30;99.90;;;;;;5094445;28;20052;-78
2022/06/20 09:27:53;;;;;;;6.30;3.15;;;28.30;99.90;;;;;;5094983;28;20049;-78
2022/06/20 09:30:34;;;;;;;6.80;3.17;;;28.40;99.90;;;;;;5089728;28;20048;-78
2022/06/20 09:33:23;;;;;;;9.13;2.70;;;28.40;99.90;;;;;;5095540;28;20090;-79
2022/06/20 09:36:17;;;;;;;9.43;2.72;;;28.40;99.90;;;;;;5092775;28;20048;-79
2022/06/20 09:38:52;;;;;;;5.70;2.72;;;28.40;99.90;;;;;;5092589;28;20045;-79
2022/06/20 09:41:26;;;;;;;5.40;2.38;;;28.50;99.90;;;;;;5093167;28;20123;-79
2022/06/20 09:44:17;;;;;;;7.88;2.22;;;28.50;99.90;;;;;;5090093;28;20108;-78
2022/06/20 09:47:16;;;;;;;6.70;2.50;;;28.50;99.90;;;;;;5090425;28;20052;-79
2022/06/20 09:50:03;;;;;;;11.10;2.38;;;28.60;99.90;;;;;;5091151;28;20055;-78
2022/06/20 09:52:50;;;;;;;6.70;2.20;;;28.60;99.90;;;;;;5089552;28;20090;-79
2022/06/20 09:56:01;;;;;;;4.45;2.33;;;28.70;99.90;;;;;;5092788;28;20413;-78
2022/06/20 09:58:43;;;;;;;3.38;2.30;;;28.70;99.90;;;;;;5076048;28;20152;-78
2022/06/20 10:01:39;;;;;;;10.23;2.90;;;28.80;99.90;;;;;;5090702;28;20051;-79
2022/06/20 10:04:44;;;;;;;7.20;2.47;;;28.80;99.90;;;;;;5091959;28;20081;-79
2022/06/20 10:07:32;;;;;;;12.57;2.78;;;28.80;99.90;;;;;;5092196;28;20095;-79
2022/06/20 10:10:27;;;;;;;8.77;2.40;;;28.80;99.90;;;;;;5093892;28;20049;-78
2022/06/20 10:13:06;;;;;;;6.35;2.38;;;28.80;99.90;;;;;;5092280;28;20059;-79
2022/06/20 10:15:42;;;;;;;5.33;2.23;;;28.80;99.90;;;;;;5086003;28;20040;-78
2022/06/20 10:18:11;;;;;;;5.28;2.35;;;28.90;99.90;;;;;;5095201;28;20155;-79
2022/06/20 10:20:52;;;;;;;3.95;2.60;;;28.90;99.90;;;;;;5093019;28;20054;-79
2022/06/20 10:23:24;;;;;;;6.40;2.20;;;29.00;99.90;;;;;;5091396;28;20059;-79
2022/06/20 10:26:19;;;;;;;9.30;2.65;;;29.00;99.90;;;;;;5094603;28;20086;-79
2022/06/20 10:28:54;;;;;;;4.90;2.10;;;29.10;99.90;;;;;;5093373;28;20525;-79
2022/06/20 10:31:29;;;;;;;8.93;2.70;;;29.10;99.90;;;;;;5089622;28;20091;-79
2022/06/20 10:34:04;;;;;;;5.65;2.10;;;29.20;99.90;;;;;;5093610;28;20047;-78
2022/06/20 10:36:49;;;;;;;6.63;2.17;;;29.20;99.90;;;;;;5096684;28;20528;-79
2022/06/20 10:39:25;;;;;;;6.07;2.03;;;29.20;99.90;;;;;;5092074;28;20058;-79
2022/06/20 10:42:10;;;;;;;4.70;2.17;;;29.20;99.90;;;;;;5092733;28;20094;-79
2022/06/20 10:44:37;;;;;;;5.40;2.45;;;29.20;99.90;;;;;;5093478;28;20044;-78
2022/06/20 10:47:16;;;;;;;7.68;2.20;;;29.30;99.90;;;;;;5092431;28;20052;-78
2022/06/20 10:50:05;;;;;;;5.78;2.17;;;29.30;99.90;;;;;;5090884;28;20072;-80
2022/06/20 10:52:43;;;;;;;3.30;1.80;;;29.30;99.90;;;;;;5089313;28;20131;-81
2022/06/20 10:55:29;;;;;;;4.93;2.55;;;29.40;99.90;;;;;;5094280;28;20043;-78
2022/06/20 10:58:26;;;;;;;10.15;2.95;;;29.50;99.90;;;;;;5091598;28;20044;-79
2022/06/20 11:01:08;;;;;;;8.85;2.47;;;29.50;99.90;;;;;;5092288;28;20048;-79
2022/06/20 11:03:59;;;;;;;5.10;2.30;;;29.70;99.90;;;;;;5089535;28;20045;-79
2022/06/20 11:06:47;;;;;;;11.07;2.38;;;29.80;99.90;;;;;;5089718;28;20052;-79
2022/06/20 11:09:35;;;;;;;4.72;2.13;;;30.00;99.90;;;;;;5092773;28;20083;-79
2022/06/20 11:12:24;;;;;;;3.22;2.00;;;30.00;99.90;;;;;;5094404;28;20501;-81
2022/06/20 11:15:17;;;;;;;6.65;2.22;;;30.20;99.90;;;;;;5093128;28;20071;-79
2022/06/20 11:18:02;;;;;;;5.85;2.35;;;30.30;99.90;;;;;;5093466;28;20041;-81
2022/06/20 11:20:44;;;;;;;4.43;2.35;;;30.50;99.90;;;;;;5091185;28;20068;-79
2022/06/20 11:23:22;;;;;;;6.90;1.80;;;30.70;99.90;;;;;;5092562;28;20052;-81
2022/06/20 11:26:11;;;;;;;6.38;2.47;;;30.90;99.90;;;;;;5089344;28;20059;-79
2022/06/20 11:28:56;;;;;;;5.82;1.88;;;31.00;99.90;;;;;;5090589;28;20070;-80
2022/06/20 11:31:56;;;;;;;4.63;1.92;;;31.10;99.90;;;;;;5089035;28;20071;-81
2022/06/20 11:34:41;;;;;;;7.82;2.40;;;31.10;99.90;;;;;;5091961;28;20464;-81
2022/06/20 11:37:26;;;;;;;7.63;2.35;;;31.10;99.90;;;;;;5093724;28;20055;-81
2022/06/20 11:40:23;;;;;;;3.63;2.10;;;31.10;99.90;;;;;;5095208;28;20048;-81
2022/06/20 11:43:29;;;;;;;7.65;2.40;;;31.20;99.90;;;;;;5089409;28;20044;-81
2022/06/20 11:46:02;;;;;;;4.90;2.30;;;31.20;99.90;;;;;;5071790;28;20494;-79
2022/06/20 11:48:46;;;;;;;6.00;2.22;;;31.30;99.90;;;;;;5093799;28;20063;-78
2022/06/20 11:51:43;;;;;;;4.70;2.33;;;31.30;99.90;;;;;;5090806;28;20055;-78
2022/06/20 11:54:30;;;;;;;7.10;2.40;;;31.20;99.90;;;;;;5091252;28;20045;-79
2022/06/20 11:57:16;;;;;;;4.10;2.38;;;31.10;99.90;;;;;;5089089;28;20040;-79
2022/06/20 11:59:55;;;;;;;4.68;2.13;;;31.10;99.90;;;;;;5092024;28;20044;-79
2022/06/20 12:02:46;;;;;;;4.57;2.33;;;31.10;99.90;;;;;;5094332;28;20131;-79
2022/06/20 12:05:40;;;;;;;4.47;2.10;;;31.00;99.90;;;;;;5090902;28;20045;-78
2022/06/20 12:08:26;;;;;;;5.90;2.00;;;30.90;99.90;;;;;;5090218;28;20051;-78
2022/06/20 12:11:05;;;;;;;5.13;2.10;;;30.90;99.90;;;;;;5087587;28;20059;-78
2022/06/20 12:14:03;;;;;;;5.25;2.10;;;30.90;99.60;;;;;;5091271;28;20078;-78
2022/06/20 12:16:51;;;;;;;3.72;2.42;;;31.00;99.90;;;;;;5093559;28;20127;-78
2022/06/20 12:25:45;;;;;;;4.97;2.17;;;31.20;98.90;;;;;;5089920;28;20053;-78
2022/06/20 12:28:25;;;;;;;7.90;2.72;;;31.30;99.30;;;;;;5088676;28;20052;-81
2022/06/20 12:31:07;;;;;;;7.25;2.25;;;31.30;99.10;;;;;;5092606;28;20048;-80
2022/06/20 12:33:37;;;;;;;4.60;2.28;;;31.40;97.90;;;;;;5088792;28;20076;-80
2022/06/20 12:36:28;;;;;;;5.10;2.45;;;31.50;98.50;;;;;;5095246;28;20044;-78
2022/06/20 12:39:01;;;;;;;3.83;2.30;;;31.70;98.80;;;;;;5096474;28;20079;-79
2022/06/20 12:41:39;;;;;;;5.88;2.50;;;31.70;97.70;;;;;;5096974;28;20044;-79
2022/06/20 12:44:34;;;;;;;6.78;2.42;;;31.70;96.50;;;;;;5094798;28;20080;-79
2022/06/20 12:47:25;;;;;;;4.57;2.33;;;31.70;96.40;;;;;;5095398;28;20048;-79
2022/06/20 12:50:19;;;;;;;5.18;2.58;;;31.70;96.60;;;;;;5080181;28;20058;-80
2022/06/20 12:53:13;;;;;;;4.55;1.90;;;31.80;96.50;;;;;;5096071;28;20135;-79
2022/06/20 12:56:18;;;;;;;4.00;2.30;;;31.80;96.40;;;;;;5088450;28;20049;-81
2022/06/20 12:59:08;;;;;;;6.60;2.80;;;31.80;97.50;;;;;;5098772;28;20055;-81
2022/06/20 13:01:58;;;;;;;6.65;2.55;;;31.70;99.90;;;;;;5098205;28;20108;-80
2022/06/20 13:05:00;;;;;;;4.38;2.35;;;31.50;99.90;;;;;;5097762;28;20048;-78
2022/06/20 13:07:39;;;;;;;11.77;2.50;;;31.10;99.90;;;;;;5097786;28;20162;-83
2022/06/20 13:10:23;;;;;;;5.40;2.70;;;30.60;99.90;;;;;;5099019;28;20087;-81
2022/06/20 13:12:49;;;;;;;5.05;2.50;;;30.40;99.90;;;;;;5076537;28;20560;-83
2022/06/20 13:15:41;;;;;;;7.28;2.60;;;30.20;99.90;;;;;;5096985;28;20049;-83
2022/06/20 13:18:33;;;;;;;8.25;2.80;;;29.90;99.90;;;;;;5094251;28;20406;-81
2022/06/20 13:21:33;;;;;;;6.60;2.25;;;29.80;99.90;;;;;;5094493;28;20104;-80
2022/06/20 13:24:23;;;;;;;6.47;2.63;;;29.70;99.90;;;;;;5097614;28;20055;-80
2022/06/20 13:26:59;;;;;;;;;;;29.60;99.90;;;;;;5092975;28;20425;-80
2022/06/20 13:29:43;;;;;;;5.13;1.88;;;29.50;99.90;;;;;;5096780;28;19921;-80
2022/06/20 13:32:31;;;;;;;4.38;2.03;;;29.40;99.90;;;;;;5096135;28;20132;-80
2022/06/20 13:35:01;;;;;;;4.65;1.88;;;29.20;99.90;;;;;;5093924;28;20040;-80
2022/06/20 13:37:43;;;;;;;10.15;1.98;;;29.10;99.90;;;;;;5098157;28;20040;-81
2022/06/20 13:40:18;;;;;;;8.88;2.03;;;29.00;99.90;;;;;;5095030;28;20091;-81
2022/06/20 13:42:48;;;;;;;4.90;1.88;;;28.90;99.90;;;;;;5098806;28;20051;-81
2022/06/20 13:45:15;;;;;;;;;;;28.90;99.90;;;;;;5097349;28;20523;-80
2022/06/20 13:48:27;;;;;;;4.15;2.05;;;28.80;99.90;;;;;;5098318;28;19988;-78
2022/06/20 13:51:20;;;;;;;3.58;1.83;;;28.70;99.90;;;;;;5095025;28;20112;-80
2022/06/20 13:54:13;;;;;;;12.82;2.10;;;28.50;99.90;;;;;;5095684;28;20040;-80
2022/06/20 13:56:54;;;;;;;7.20;1.77;;;28.40;99.90;;;;;;5094212;28;20473;-80
2022/06/20 13:59:57;;;;;;;5.00;1.85;;;28.50;99.90;;;;;;5092154;28;20072;-80
2022/06/20 14:02:43;;;;;;;6.57;2.42;;;28.40;99.90;;;;;;5094874;28;20509;-81
2022/06/20 14:05:26;;;;;;;6.57;2.05;;;28.30;99.90;;;;;;5092572;28;20059;-80